Sign-in with your pilot id or email, or register

ICAO: LDSP Name / Country: Split/Kastela / Croatia
Latitude: 43.5389 Longitude: 16.298
Total Arrivals:
Strict Standards: Non-static method AirportData::getarrflights() should not be called statically, assuming $this from incompatible context in /var/www/customers/vh-7192/web/home/phpvms/core/templates/airport_info.tpl on line 18
7
Total Departures:
Strict Standards: Non-static method AirportData::getdeptflights() should not be called statically, assuming $this from incompatible context in /var/www/customers/vh-7192/web/home/phpvms/core/templates/airport_info.tpl on line 21
2
Latest Arrival: MTA11P (LHBP-LDSP) Tibor Berces Latest Departure: MTA11P (LDSP-LHBP) Tibor Berces
Metar: LDSP 060430Z 36005KT 320V030 CAVOK 12/M03 Q1022 NOSIG
More info

Charts for LDSP


NOTAM


Warning: file_get_contents(http://api.vateud.net/notams/LDSP.json): failed to open stream: Redirection limit reached, aborting in /var/www/customers/vh-7192/web/home/phpvms/core/common/NOTAMSData.class.php on line 18

Warning: Invalid argument supplied for foreach() in /var/www/customers/vh-7192/web/home/phpvms/core/common/NOTAMSData.class.php on line 22

Split/Kastela